Losantville, Indiana
Current Conditions -  °F | °C
As of 9:53 AM on Wednesday 22 Oct 2014 (Local Time) from KMIE Reporting Station
Overcast Overcast  
Wind Chill: 40°   Ceiling: 2400
Heat Index: 44°   Visibility: 10mi
Dew Point: 38°   Wind: 7mph
Humidity: 79%   Direction: 40°NE
Pressure: 30.32"   Gusts: NA
Location:  40.02°N, 85.18°W
Report Text: KMIE 221353Z 04006KT 10SM OVC024 07/03 A3032 RMK AO2 SLP267 T00670033
Loading
Personal Weather Stations






























Interactive Weather Map
Tropical Storm Tracking
New forecast layout! Learn more

10-Day Weather Forecast

Advertisements
Track Severe Weather on mobile